Time;durP1;ratioP1;P1;durP2;ratioP2;P2;SDS_P1;SDS_P2;PMS_P1;PMS_P2;Temp;Humidity;BMP_temperature;BMP_pressure;BME280_temperature;BME280_humidity;BME280_pressure;Samples;Min_cycle;Max_cycle;Signal;HPM_P1;HPM_P2
2022/11/22 00:02:21;;;;;;;9.90;9.10;;;;;;;21.84;40.70;94500.13;6229124;28;103622;-68
2022/11/22 00:05:25;;;;;;;10.80;9.80;;;;;;;21.84;40.77;94500.13;6225821;28;103745;-66
2022/11/22 00:08:28;;;;;;;10.80;9.90;;;;;;;21.83;40.70;94500.47;6224416;27;103972;-66
2022/11/22 00:11:31;;;;;;;9.90;9.10;;;;;;;21.84;40.47;94499.34;6231578;28;103988;-66
2022/11/22 00:14:34;;;;;;;9.70;8.90;;;;;;;21.83;40.62;94497.78;6230423;27;103805;-66
2022/11/22 00:17:39;;;;;;;9.53;8.73;;;;;;;21.81;40.43;94500.75;6219464;27;103707;-65
2022/11/22 00:20:42;;;;;;;10.83;9.93;;;;;;;21.82;40.41;94497.00;6231087;28;104768;-66
2022/11/22 00:23:45;;;;;;;10.80;9.90;;;;;;;21.81;41.05;94500.75;6228567;27;103867;-66
2022/11/22 00:26:48;;;;;;;9.60;8.70;;;;;;;21.81;40.93;94504.19;6229621;27;103726;-66
2022/11/22 00:29:51;;;;;;;10.07;9.27;;;;;;;21.81;40.99;94506.06;6218591;28;104316;-67
2022/11/22 00:32:56;;;;;;;9.77;8.97;;;;;;;21.79;40.72;94503.72;6229571;27;103768;-66
2022/11/22 00:35:59;;;;;;;9.53;8.83;;;;;;;21.79;40.55;94509.06;6231729;28;104596;-66
2022/11/22 00:39:02;;;;;;;10.77;9.90;;;;;;;21.79;40.49;94503.72;6230448;28;103721;-65
2022/11/22 00:42:05;;;;;;;9.30;8.50;;;;;;;21.80;40.74;94504.50;6220006;27;103850;-65
2022/11/22 00:45:09;;;;;;;9.40;8.60;;;;;;;21.80;40.46;94509.84;6229658;27;104041;-66
2022/11/22 00:48:13;;;;;;;9.17;8.47;;;;;;;21.78;40.46;94512.03;6229213;28;104745;-65
2022/11/22 00:51:17;;;;;;;9.03;8.33;;;;;;;21.78;40.50;94499.50;6225234;28;104124;-66
2022/11/22 00:54:20;;;;;;;9.23;8.43;;;;;;;21.78;40.69;94514.69;6224006;27;103875;-66
2022/11/22 00:57:23;;;;;;;9.17;8.47;;;;;;;21.77;40.49;94508.59;6228961;28;103967;-66
2022/11/22 01:00:26;;;;;;;9.30;8.53;;;;;;;21.78;40.27;94506.72;6227685;27;103966;-66
2022/11/22 01:03:30;;;;;;;9.37;8.60;;;;;;;21.76;40.30;94499.03;6219288;28;106663;-65
2022/11/22 01:06:33;;;;;;;8.83;8.13;;;;;;;21.76;40.82;94500.94;6229648;28;107920;-66
2022/11/22 01:09:37;;;;;;;9.20;8.50;;;;;;;21.76;40.54;94499.03;6230350;28;104965;-66
2022/11/22 01:12:40;;;;;;;8.73;8.00;;;;;;;21.75;40.59;94494.81;6229470;27;103835;-67
2022/11/22 01:15:43;;;;;;;8.63;7.93;;;;;;;21.75;40.53;94504.69;6217588;27;103430;-67
2022/11/22 01:18:47;;;;;;;9.03;8.30;;;;;;;21.75;40.70;94502.81;6228791;27;103794;-67
2022/11/22 01:21:50;;;;;;;9.50;8.67;;;;;;;21.76;40.64;94500.94;6229455;27;104583;-67
2022/11/22 01:24:53;;;;;;;9.20;8.50;;;;;;;21.75;40.35;94486.81;6229321;27;103984;-67
2022/11/22 01:27:56;;;;;;;9.07;8.37;;;;;;;21.76;40.31;94498.25;6219554;28;106615;-67
2022/11/22 01:31:00;;;;;;;8.70;8.00;;;;;;;21.76;40.15;94488.38;6228075;27;103917;-68
2022/11/22 01:34:05;;;;;;;8.60;7.90;;;;;;;21.76;40.43;94493.72;6229866;28;103843;-67
2022/11/22 01:37:08;;;;;;;8.93;8.20;;;;;;;21.75;40.43;94496.69;6225929;27;104948;-67
2022/11/22 01:40:11;;;;;;;8.10;7.50;;;;;;;21.74;40.29;94484.47;6223793;27;104353;-68
2022/11/22 01:43:18;;;;;;;7.73;7.13;;;;;;;21.73;40.78;94486.38;6222656;27;103805;-68
2022/11/22 01:46:30;;;;;;;7.77;7.17;;;;;;;21.73;40.49;94493.56;6229108;28;104461;-68
2022/11/22 01:49:39;;;;;;;8.20;7.60;;;;;;;21.73;40.53;94482.91;6216405;27;103954;-67
2022/11/22 01:52:42;;;;;;;7.53;7.03;;;;;;;21.72;40.73;94495.44;6226396;28;106823;-67
2022/11/22 01:55:46;;;;;;;8.47;7.77;;;;;;;21.72;40.13;94498.13;6230068;28;104602;-67
2022/11/22 01:58:55;;;;;;;8.03;7.33;;;;;;;21.71;40.45;94485.13;6228159;27;103746;-67
2022/11/22 02:01:59;;;;;;;8.43;7.57;;;;;;;21.69;40.04;94482.78;6209166;28;103449;-67
2022/11/22 02:05:07;;;;;;;7.63;7.03;;;;;;;21.69;40.09;94482.78;6229658;27;103730;-67
2022/11/22 02:08:15;;;;;;;7.90;7.30;;;;;;;21.70;40.29;94486.22;6230866;27;103796;-68
2022/11/22 02:11:20;;;;;;;7.57;6.93;;;;;;;21.71;39.98;94493.13;6233180;28;104241;-67
2022/11/22 02:14:26;;;;;;;7.47;6.87;;;;;;;21.70;40.19;94491.53;6221576;27;103806;-67
2022/11/22 02:17:29;;;;;;;7.37;6.77;;;;;;;21.69;40.16;94497.97;6231654;28;105219;-67
2022/11/22 02:20:34;;;;;;;7.20;6.60;;;;;;;21.69;39.66;94496.09;6225670;27;103961;-68
2022/11/22 02:23:50;;;;;;;6.60;6.10;;;;;;;21.71;39.98;94498.44;6225893;27;103869;-67
2022/11/22 02:26:55;;;;;;;6.67;6.17;;;;;;;21.70;39.79;94499.53;6232071;27;103640;-67
2022/11/22 02:29:58;;;;;;;6.80;6.30;;;;;;;21.70;40.05;94497.66;6231416;28;106865;-66
2022/11/22 02:33:01;;;;;;;6.23;5.73;;;;;;;21.70;39.88;94494.22;6229612;27;103644;-67
2022/11/22 02:36:04;;;;;;;6.70;6.20;;;;;;;21.69;39.75;94482.78;6220378;27;103860;-67
2022/11/22 02:39:11;;;;;;;6.20;5.70;;;;;;;21.68;39.72;94485.75;6231347;28;105726;-67
2022/11/22 02:42:16;;;;;;;6.13;5.63;;;;;;;21.68;39.49;94491.88;6229818;28;104509;-66
2022/11/22 02:45:19;;;;;;;5.80;5.40;;;;;;;21.69;40.01;94495.31;6231946;27;104201;-66
2022/11/22 02:48:22;;;;;;;6.23;5.77;;;;;;;21.68;39.91;94483.09;6221079;28;104349;-65
2022/11/22 02:51:25;;;;;;;6.17;5.67;;;;;;;21.69;39.72;94474.00;6231458;28;103971;-65
2022/11/22 02:54:28;;;;;;;5.53;5.03;;;;;;;21.66;39.79;94467.41;6231270;27;103594;-66
2022/11/22 02:57:33;;;;;;;6.00;5.17;;;;;;;21.66;39.25;94464.75;6230414;27;104212;-67
2022/11/22 03:00:37;;;;;;;5.30;4.90;;;;;;;21.66;39.46;94472.72;6222132;28;104389;-65
2022/11/22 03:03:40;;;;;;;5.90;5.40;;;;;;;21.64;39.60;94468.81;6229940;28;103589;-66
2022/11/22 03:06:43;;;;;;;4.60;4.17;;;;;;;21.65;39.58;94476.50;6230306;27;103854;-65
2022/11/22 03:09:46;;;;;;;5.30;4.80;;;;;;;21.64;39.92;94474.16;6224449;27;103757;-66
2022/11/22 03:12:51;;;;;;;5.20;4.80;;;;;;;21.64;40.03;94472.28;6228819;28;103877;-66
2022/11/22 03:15:54;;;;;;;5.13;4.73;;;;;;;21.64;39.76;94474.16;6230930;27;105121;-65
2022/11/22 03:18:57;;;;;;;5.53;5.13;;;;;;;21.63;39.54;94469.94;6230711;27;104289;-65
2022/11/22 03:22:00;;;;;;;4.80;4.40;;;;;;;21.64;39.52;94468.81;6220696;27;104220;-66
2022/11/22 03:25:04;;;;;;;4.77;4.37;;;;;;;21.65;39.75;94471.16;6231938;28;106493;-66
2022/11/22 03:28:09;;;;;;;4.20;3.90;;;;;;;21.64;39.39;94474.16;6231490;28;105016;-66
2022/11/22 03:31:12;;;;;;;4.43;4.03;;;;;;;21.63;39.13;94468.03;6230220;27;103890;-66
2022/11/22 03:34:15;;;;;;;4.30;4.00;;;;;;;21.63;39.74;94468.03;6219257;27;103766;-65
2022/11/22 03:37:18;;;;;;;4.80;4.40;;;;;;;21.62;39.19;94466.47;6232809;28;105644;-66
2022/11/22 03:40:21;;;;;;;4.83;4.30;;;;;;;21.61;39.00;94467.59;6231380;28;105042;-65
2022/11/22 03:43:25;;;;;;;4.17;3.80;;;;;;;21.62;39.13;94466.47;6230796;28;106591;-65
2022/11/22 03:46:29;;;;;;;4.13;3.83;;;;;;;21.62;39.32;94471.81;6219906;28;104753;-65
2022/11/22 03:49:32;;;;;;;4.23;3.93;;;;;;;21.62;39.37;94463.81;6230864;27;103848;-66
2022/11/22 03:52:35;;;;;;;3.93;3.63;;;;;;;21.61;39.63;94469.47;6232020;27;104634;-65
2022/11/22 03:55:38;;;;;;;4.10;3.80;;;;;;;21.60;39.41;94468.69;6226624;27;103801;-64
2022/11/22 03:58:42;;;;;;;4.10;3.80;;;;;;;21.59;39.52;94466.34;6224994;27;103783;-65
2022/11/22 04:01:45;;;;;;;3.60;3.30;;;;;;;21.59;39.21;94484.97;6218538;27;106074;-66
2022/11/22 04:04:49;;;;;;;3.53;3.23;;;;;;;21.61;39.06;94485.44;6229878;27;103704;-65
2022/11/22 04:07:54;;;;;;;4.03;3.73;;;;;;;21.63;38.69;94492.00;6220441;28;103564;-65
2022/11/22 04:10:57;;;;;;;3.80;3.50;;;;;;;21.69;39.09;94489.97;6229474;27;104331;-65
2022/11/22 04:27:21;;;;;;;4.13;3.80;;;;;;;21.64;39.16;94504.22;6230188;27;104020;-63
2022/11/22 04:33:44;;;;;;;3.53;3.30;;;;;;;21.67;38.94;94513.47;6228608;28;104873;-64
2022/11/22 04:36:47;;;;;;;3.17;2.90;;;;;;;21.67;39.23;94516.13;6229300;27;104057;-63
2022/11/22 04:39:50;;;;;;;3.23;3.03;;;;;;;21.68;39.15;94517.72;6229869;27;103704;-64
2022/11/22 04:46:16;;;;;;;3.03;2.73;;;;;;;21.69;38.65;94513.94;6230865;28;104039;-64
2022/11/22 04:49:19;;;;;;;3.43;3.10;;;;;;;21.71;39.17;94530.41;6229844;28;104557;-64
2022/11/22 04:55:45;;;;;;;4.20;3.90;;;;;;;21.74;39.90;94532.41;6213798;27;103772;-64
2022/11/22 04:58:54;;;;;;;3.60;3.30;;;;;;;21.25;34.04;94541.66;6230930;27;103625;-64
2022/11/22 05:01:58;;;;;;;6.23;3.57;;;;;;;20.12;34.13;94535.19;6230176;27;103443;-65
2022/11/22 05:05:01;;;;;;;3.90;3.03;;;;;;;20.05;34.63;94546.25;6224303;28;103377;-67
2022/11/22 05:08:06;;;;;;;3.37;3.07;;;;;;;20.41;37.88;94543.47;6227163;27;103760;-65
2022/11/22 05:11:09;;;;;;;5.10;3.00;;;;;;;21.26;35.76;94530.72;6228502;27;104243;-65
2022/11/22 05:14:12;;;;;;;2.77;2.57;;;;;;;21.69;35.54;94525.38;6229389;28;103824;-65
2022/11/22 05:17:17;;;;;;;3.00;2.80;;;;;;;21.90;35.44;94520.19;6221627;27;103889;-66
2022/11/22 05:20:20;;;;;;;3.63;2.67;;;;;;;22.10;36.29;94527.50;6230150;27;103926;-66
2022/11/22 05:26:44;;;;;;;5.50;3.00;;;;;;;22.18;36.34;94538.44;6225350;27;103751;-66
2022/11/22 05:29:47;;;;;;;3.60;3.30;;;;;;;22.20;36.19;94539.72;6212719;27;104845;-66
2022/11/22 05:32:52;;;;;;;4.40;4.03;;;;;;;22.22;36.82;94536.72;6228084;27;103684;-66
2022/11/22 05:35:59;;;;;;;5.20;4.70;;;;;;;22.27;36.46;94545.34;6231562;27;103992;-66
2022/11/22 05:39:02;;;;;;;5.07;4.57;;;;;;;22.31;36.89;94532.16;6224912;28;104818;-65
2022/11/22 05:42:05;;;;;;;6.53;5.93;;;;;;;22.30;37.07;94539.34;6200534;28;104361;-66
2022/11/22 05:45:09;;;;;;;7.47;6.67;;;;;;;22.33;36.88;94532.59;6210478;28;103781;-66
2022/11/22 05:48:14;;;;;;;6.97;6.37;;;;;;;22.30;37.19;94543.91;6210635;28;103929;-66
2022/11/22 05:51:19;;;;;;;8.10;6.90;;;;;;;22.28;37.45;94546.13;6200557;28;103807;-64
2022/11/22 05:54:22;;;;;;;7.30;6.60;;;;;;;22.26;37.47;94549.09;6211042;28;103578;-66
2022/11/22 05:57:25;;;;;;;8.23;7.50;;;;;;;22.23;37.51;94548.97;6210647;28;103949;-66
2022/11/22 06:00:29;;;;;;;9.13;7.57;;;;;;;22.18;37.40;94551.78;6210870;28;103877;-66
2022/11/22 06:03:34;;;;;;;8.80;8.10;;;;;;;22.08;37.47;94553.69;6199879;28;103840;-66
2022/11/22 06:06:37;;;;;;;9.57;8.70;;;;;;;22.03;37.87;94553.88;6212092;28;103944;-66
2022/11/22 06:09:40;;;;;;;9.80;8.90;;;;;;;22.00;37.74;94559.03;6208421;28;103756;-66
2022/11/22 06:12:43;;;;;;;10.23;9.23;;;;;;;21.96;37.84;94558.88;6210827;28;105018;-65
2022/11/22 06:15:46;;;;;;;11.57;10.57;;;;;;;21.94;37.61;94561.09;6199084;28;103891;-66
2022/11/22 06:18:51;;;;;;;11.63;10.47;;;;;;;21.94;40.67;94554.97;6210544;28;104846;-65
2022/11/22 06:21:53;;;;;;;13.80;12.40;;;;;;;21.89;41.37;94566.59;6210437;28;103871;-65
2022/11/22 06:24:57;;;;;;;12.90;11.07;;;;;;;21.90;41.96;94570.03;6204948;28;104139;-66
2022/11/22 06:28:00;;;;;;;12.57;11.40;;;;;;;21.84;41.44;94566.72;6205532;28;103394;-66
2022/11/22 06:31:04;;;;;;;11.63;10.47;;;;;;;21.85;40.40;94565.66;6210994;28;104244;-66
2022/11/22 06:34:08;;;;;;;12.47;11.27;;;;;;;23.85;37.07;94564.34;6209682;28;103544;-66
2022/11/22 06:37:14;;;;;;;11.23;10.13;;;;;;;25.24;34.02;94566.25;6200315;28;105240;-66
2022/11/22 06:40:17;;;;;;;10.30;9.27;;;;;;;25.61;32.15;94561.63;6209520;28;104791;-64
2022/11/22 06:43:21;;;;;;;9.90;8.90;;;;;;;26.09;31.50;94569.84;6209705;28;104755;-65
2022/11/22 06:46:26;;;;;;;9.93;8.80;;;;;;;26.15;31.12;94563.09;6208997;28;104004;-65
2022/11/22 06:49:30;;;;;;;10.27;9.37;;;;;;;26.18;31.31;94573.91;6199862;28;104015;-65
2022/11/22 06:52:34;;;;;;;11.47;9.07;;;;;;;25.86;31.61;94585.66;6210068;28;103961;-65
2022/11/22 06:55:37;;;;;;;9.43;8.53;;;;;;;24.49;34.04;94574.59;6207411;28;104759;-65
2022/11/22 06:58:56;;;;;;;9.73;8.73;;;;;;;23.66;36.02;94579.28;6202128;28;103315;-65
2022/11/22 07:01:59;;;;;;;9.03;8.20;;;;;;;23.44;36.25;94567.06;6201887;28;104807;-65
2022/11/22 07:05:10;;;;;;;15.00;8.57;;;;;;;23.47;36.28;94567.19;6207312;28;103595;-66
2022/11/22 07:08:27;;;;;;;9.53;8.67;;;;;;;23.59;36.16;94577.16;6207420;28;105072;-65
2022/11/22 07:11:32;;;;;;;8.80;8.10;;;;;;;23.58;36.21;94580.94;6198623;28;103716;-65
2022/11/22 07:14:36;;;;;;;8.77;8.00;;;;;;;23.49;36.75;94569.53;6210030;28;104958;-65
2022/11/22 07:17:39;;;;;;;8.27;7.57;;;;;;;23.27;37.10;94570.59;6209952;28;104916;-65
2022/11/22 07:20:43;;;;;;;8.17;7.47;;;;;;;23.03;37.14;94563.22;6209857;28;103862;-65
2022/11/22 07:23:48;;;;;;;8.33;7.60;;;;;;;22.92;37.59;94560.16;6199598;28;105526;-65
2022/11/22 07:26:51;;;;;;;7.27;6.67;;;;;;;22.88;37.20;94566.44;6210340;28;103398;-64
2022/11/22 07:29:54;;;;;;;7.80;7.10;;;;;;;22.88;37.88;94567.22;6209580;28;104114;-63
2022/11/22 07:32:57;;;;;;;7.50;6.90;;;;;;;22.87;38.13;94560.34;6204868;28;105175;-64
2022/11/22 07:36:06;;;;;;;7.67;7.07;;;;;;;22.73;38.25;94564.31;6203375;28;103831;-64
2022/11/22 07:39:09;;;;;;;7.87;7.00;;;;;;;22.55;37.90;94555.59;6209444;28;103426;-65
2022/11/22 07:42:12;;;;;;;7.23;6.63;;;;;;;22.54;38.02;94540.69;6207731;28;103999;-66
2022/11/22 07:45:15;;;;;;;7.87;7.07;;;;;;;22.66;38.11;94530.13;6198818;28;105191;-65
2022/11/22 07:48:18;;;;;;;7.27;6.57;;;;;;;22.70;38.13;94531.88;6208709;28;104430;-65
2022/11/22 07:51:23;;;;;;;7.73;6.93;;;;;;;22.62;38.00;94523.88;6215543;28;103409;-65
2022/11/22 07:54:26;;;;;;;7.63;7.03;;;;;;;22.57;38.26;94530.19;6231918;27;103869;-65
2022/11/22 07:57:29;;;;;;;7.73;7.03;;;;;;;22.47;38.46;94551.06;6221821;28;104844;-65
2022/11/22 08:00:32;;;;;;;9.37;8.50;;;;;;;22.44;38.15;94549.03;6233149;27;103506;-66
2022/11/22 08:03:35;;;;;;;8.83;8.10;;;;;;;22.41;38.12;94550.47;6218266;27;103707;-66
2022/11/22 08:06:40;;;;;;;9.07;8.10;;;;;;;22.40;38.28;94547.00;6230458;27;103772;-66
2022/11/22 08:09:43;;;;;;;8.10;7.40;;;;;;;22.42;38.63;94560.03;6204160;28;103914;-65
2022/11/22 08:12:47;;;;;;;8.60;7.90;;;;;;;22.44;38.43;94539.16;6228155;28;104217;-66
2022/11/22 08:15:50;;;;;;;8.47;7.77;;;;;;;22.49;38.76;94546.97;6224145;27;103744;-66
2022/11/22 08:18:56;;;;;;;8.27;7.47;;;;;;;22.58;38.66;94541.66;6220404;28;103637;-66
2022/11/22 08:22:01;;;;;;;7.93;7.30;;;;;;;22.64;39.07;94543.81;6229674;27;103959;-67
2022/11/22 08:25:07;;;;;;;9.33;8.43;;;;;;;22.69;38.67;94546.31;6220904;28;103805;-65
2022/11/22 08:28:11;;;;;;;7.77;7.07;;;;;;;22.75;38.65;94540.78;6233888;28;106340;-66
2022/11/22 08:31:16;;;;;;;7.60;6.90;;;;;;;22.76;38.63;94542.34;6221352;27;104840;-65
2022/11/22 08:34:19;;;;;;;7.73;7.00;;;;;;;22.72;38.28;94533.44;6233819;28;104356;-65
2022/11/22 08:37:24;;;;;;;8.23;7.47;;;;;;;22.64;38.67;94517.13;6233105;28;103470;-65
2022/11/22 08:40:27;;;;;;;7.70;7.10;;;;;;;22.59;38.75;94513.88;6233326;28;104106;-65
2022/11/22 08:43:30;;;;;;;7.67;7.00;;;;;;;22.53;38.75;94509.81;6221653;27;106657;-65
2022/11/22 08:46:33;;;;;;;7.20;6.60;;;;;;;22.49;38.85;94498.19;6232851;27;103858;-64
2022/11/22 08:49:37;;;;;;;7.83;7.03;;;;;;;22.42;38.79;94493.38;6233070;27;103742;-64
2022/11/22 08:52:41;;;;;;;6.97;6.40;;;;;;;22.41;38.65;94492.59;6226574;27;103943;-65
2022/11/22 08:55:44;;;;;;;7.27;6.57;;;;;;;22.37;38.91;94485.56;6227292;28;103748;-64
2022/11/22 08:58:47;;;;;;;7.50;6.90;;;;;;;22.33;38.52;94492.63;6232265;27;103965;-64
2022/11/22 09:01:50;;;;;;;7.50;6.50;;;;;;;22.29;38.67;94478.38;6232522;27;106406;-64
2022/11/22 09:04:53;;;;;;;6.90;6.30;;;;;;;22.26;39.31;94479.81;6222724;28;104405;-65
2022/11/22 09:07:58;;;;;;;6.40;5.90;;;;;;;22.24;38.99;94481.22;6232955;28;104561;-64
2022/11/22 09:11:21;;;;;;;6.93;6.30;;;;;;;22.21;38.70;94477.31;6232981;27;103454;-64
2022/11/22 09:14:24;;;;;;;6.47;5.90;;;;;;;22.19;39.15;94484.84;6231130;27;103890;-64
2022/11/22 09:17:27;;;;;;;7.30;6.27;;;;;;;22.18;39.13;94477.16;6222356;27;103936;-64
2022/11/22 09:20:30;;;;;;;6.53;6.03;;;;;;;22.18;39.04;94458.50;6237051;27;103777;-64
2022/11/22 09:23:35;;;;;;;8.40;6.20;;;;;;;22.18;39.11;94471.81;6235441;27;104369;-64
2022/11/22 09:26:38;;;;;;;6.30;5.80;;;;;;;22.19;38.62;94460.88;6231690;27;104059;-65
2022/11/22 09:29:41;;;;;;;6.40;5.90;;;;;;;22.19;38.98;94466.19;6232382;27;103697;-64
2022/11/22 09:32:44;;;;;;;6.70;5.80;;;;;;;22.22;38.70;94480.75;6236352;27;103690;-64
2022/11/22 09:35:47;;;;;;;6.20;5.70;;;;;;;22.26;38.37;94463.03;6236260;27;102944;-64
2022/11/22 09:38:52;;;;;;;5.67;5.27;;;;;;;22.26;38.72;94450.47;6225523;27;104887;-64
2022/11/22 09:42:26;;;;;;;5.63;5.23;;;;;;;22.28;38.87;94466.94;6236329;27;103990;-64
2022/11/22 09:45:47;;;;;;;5.83;5.33;;;;;;;22.27;38.72;94469.91;6235478;27;103906;-64
2022/11/22 09:49:10;;;;;;;5.77;5.37;;;;;;;22.26;38.50;94444.38;6236748;27;104026;-64
2022/11/22 09:52:19;;;;;;;5.83;5.33;;;;;;;22.26;38.57;94452.38;6230451;28;103878;-64
2022/11/22 09:55:28;;;;;;;5.90;5.50;;;;;;;22.26;38.27;94439.81;6235832;27;103776;-64
2022/11/22 09:58:36;;;;;;;5.80;5.40;;;;;;;22.25;38.81;94440.16;6236426;27;103899;-64
2022/11/22 10:01:45;;;;;;;5.30;4.90;;;;;;;22.24;38.62;94434.03;6225123;27;103603;-64
2022/11/22 10:04:54;;;;;;;5.20;4.80;;;;;;;22.24;38.59;94438.59;6234895;27;106100;-64
2022/11/22 10:08:04;;;;;;;5.40;5.00;;;;;;;22.24;38.92;94433.25;6234082;28;105278;-63
2022/11/22 10:11:19;;;;;;;5.47;5.07;;;;;;;22.23;38.54;94421.03;6235641;28;103901;-64
2022/11/22 10:14:40;;;;;;;5.73;5.33;;;;;;;22.23;38.66;94413.03;6223012;28;103973;-63
2022/11/22 10:17:52;;;;;;;5.60;5.10;;;;;;;22.19;38.63;94414.78;6233984;28;104654;-68
2022/11/22 10:20:55;;;;;;;5.43;4.93;;;;;;;22.18;38.80;94397.22;6233538;27;103774;-68
2022/11/22 10:23:59;;;;;;;5.30;4.83;;;;;;;22.12;38.56;94393.97;6222815;27;103908;-68
2022/11/22 10:27:05;;;;;;;5.10;4.70;;;;;;;22.08;38.82;94388.50;6225147;28;103964;-66
2022/11/22 10:30:15;;;;;;;4.80;4.40;;;;;;;22.09;39.38;94379.41;6226253;28;104076;-65
2022/11/22 10:33:22;;;;;;;4.90;4.40;;;;;;;22.10;38.66;94370.28;6231069;28;103870;-65
2022/11/22 10:36:35;;;;;;;5.07;4.67;;;;;;;22.14;38.92;94369.66;6221597;28;106098;-65
2022/11/22 10:39:55;;;;;;;5.00;4.60;;;;;;;22.15;39.01;94365.88;6229723;27;103771;-65
2022/11/22 10:43:24;;;;;;;5.20;4.70;;;;;;;22.15;38.79;94366.66;6232161;28;103779;-65
2022/11/22 10:46:40;;;;;;;5.30;4.90;;;;;;;22.14;38.89;94378.41;6224841;27;104615;-63
2022/11/22 10:49:55;;;;;;;5.27;4.60;;;;;;;22.16;38.94;94362.09;6229926;27;104737;-65
2022/11/22 10:53:09;;;;;;;5.30;4.80;;;;;;;22.15;38.71;94350.66;6230605;27;103664;-65
2022/11/22 10:56:22;;;;;;;5.03;4.20;;;;;;;22.16;38.67;94343.47;6229659;27;104129;-65
2022/11/22 10:59:48;;;;;;;4.73;4.23;;;;;;;22.16;38.52;94341.56;6219328;28;103506;-64
2022/11/22 11:03:05;;;;;;;4.93;4.43;;;;;;;22.19;39.56;94345.50;6225183;28;103891;-64
2022/11/22 11:06:16;;;;;;;5.00;4.50;;;;;;;22.19;39.42;94354.28;6232491;28;105041;-64
2022/11/22 11:09:42;;;;;;;5.17;4.77;;;;;;;22.20;40.01;94344.41;6201704;28;105943;-63
2022/11/22 11:13:14;;;;;;;5.17;4.03;;;;;;;22.22;40.06;94344.84;6213715;28;103391;-63
2022/11/22 11:16:22;;;;;;;4.70;4.30;;;;;;;22.21;39.71;94333.41;6222599;27;104738;-64
2022/11/22 11:19:29;;;;;;;4.50;4.10;;;;;;;22.31;40.10;94349.00;6227369;28;103238;-64
2022/11/22 11:22:34;;;;;;;5.43;4.93;;;;;;;22.35;40.15;94339.28;6215906;28;103863;-64
2022/11/22 11:26:17;;;;;;;4.70;4.30;;;;;;;22.37;40.30;94341.63;6218627;28;103348;-64
2022/11/22 11:29:36;;;;;;;3.93;3.63;;;;;;;22.35;40.22;94333.94;6230232;28;103807;-64
2022/11/22 11:32:52;;;;;;;4.40;4.10;;;;;;;22.39;40.40;94342.06;6221271;27;103815;-65
2022/11/22 11:36:03;;;;;;;4.40;3.60;;;;;;;22.38;40.34;94337.84;6230522;27;103785;-64
2022/11/22 11:39:20;;;;;;;5.00;4.23;;;;;;;22.36;40.30;94324.84;6213697;27;103896;-64
2022/11/22 11:42:26;;;;;;;3.97;3.67;;;;;;;22.35;40.25;94317.16;6229713;28;107023;-65
2022/11/22 11:45:30;;;;;;;4.20;3.80;;;;;;;22.40;40.43;94324.97;6220691;27;103574;-65
2022/11/22 11:48:39;;;;;;;4.53;4.13;;;;;;;22.36;40.77;94318.72;6230715;27;103887;-64
2022/11/22 11:51:44;;;;;;;4.13;3.83;;;;;;;22.36;40.33;94321.41;6231540;28;104579;-65
2022/11/22 11:54:50;;;;;;;4.00;3.70;;;;;;;22.34;40.71;94315.59;6232273;27;104583;-65
2022/11/22 11:57:53;;;;;;;5.73;4.10;;;;;;;22.35;40.77;94301.19;6221706;27;103945;-65
2022/11/22 12:00:57;;;;;;;3.70;3.40;;;;;;;22.37;40.44;94305.06;6228422;28;104927;-64
2022/11/22 12:04:03;;;;;;;4.20;3.80;;;;;;;22.38;40.90;94297.84;6229920;27;103438;-64
2022/11/22 12:07:18;;;;;;;5.00;4.40;;;;;;;22.36;40.41;94297.41;6224511;27;105044;-66
2022/11/22 12:10:31;;;;;;;4.07;3.67;;;;;;;22.31;41.31;94309.03;6231162;28;103787;-66
2022/11/22 12:13:40;;;;;;;5.53;3.80;;;;;;;22.37;41.61;94312.28;6231419;27;103755;-66
2022/11/22 12:17:07;;;;;;;4.30;3.90;;;;;;;22.32;41.54;94277.81;6222306;28;104253;-66
2022/11/22 12:20:16;;;;;;;3.90;3.60;;;;;;;22.39;41.21;94272.75;6216826;27;103844;-65
2022/11/22 12:23:24;;;;;;;3.97;3.57;;;;;;;22.33;41.91;94271.38;6230432;27;103721;-64
2022/11/22 12:26:28;;;;;;;4.37;3.97;;;;;;;22.34;41.57;94260.38;6227236;28;103860;-67
2022/11/22 12:29:37;;;;;;;5.43;4.40;;;;;;;22.35;41.54;94245.19;6207456;28;103159;-66
2022/11/22 12:32:44;;;;;;;4.67;4.07;;;;;;;22.34;42.01;94252.38;6223911;27;103784;-67
2022/11/22 12:35:50;;;;;;;4.23;3.83;;;;;;;22.36;42.52;94258.19;6229196;27;103958;-64
2022/11/22 12:38:55;;;;;;;4.40;3.97;;;;;;;22.35;42.47;94253.19;6229471;27;104194;-65
2022/11/22 12:42:04;;;;;;;4.17;3.77;;;;;;;22.35;41.94;94255.88;6220551;27;103715;-65
2022/11/22 12:45:16;;;;;;;4.17;3.77;;;;;;;22.36;42.11;94268.09;6217557;28;105060;-66
2022/11/22 12:48:24;;;;;;;4.20;3.80;;;;;;;22.40;42.12;94261.00;6205500;28;104897;-66
2022/11/22 12:51:39;;;;;;;3.80;3.50;;;;;;;22.39;42.21;94246.88;6215063;27;104486;-64
2022/11/22 12:54:57;;;;;;;4.53;3.73;;;;;;;22.37;42.03;94245.66;6203220;28;103703;-64
2022/11/22 12:58:07;;;;;;;4.30;3.70;;;;;;;22.27;42.66;94236.16;6229587;28;103730;-67
2022/11/22 13:01:17;;;;;;;4.80;4.30;;;;;;;22.20;42.26;94235.91;6232714;28;103779;-64
2022/11/22 13:04:28;;;;;;;4.77;4.07;;;;;;;22.21;41.83;94240.13;6226082;28;103491;-64
2022/11/22 13:07:50;;;;;;;4.07;3.67;;;;;;;22.25;41.83;94245.59;6228820;27;103910;-65
2022/11/22 13:10:58;;;;;;;4.33;3.80;;;;;;;22.26;41.92;94244.47;6232443;27;104706;-65
2022/11/22 13:14:06;;;;;;;4.33;3.93;;;;;;;22.29;42.06;94235.81;6230317;28;105701;-64
2022/11/22 13:17:11;;;;;;;3.80;3.47;;;;;;;22.27;42.00;94224.72;6222221;27;104976;-65
2022/11/22 13:20:18;;;;;;;4.10;3.70;;;;;;;22.27;41.99;94222.81;6232390;27;104029;-65
2022/11/22 13:23:35;;;;;;;3.90;3.30;;;;;;;22.25;42.64;94203.72;6230734;28;104230;-64
2022/11/22 13:26:47;;;;;;;3.73;3.20;;;;;;;22.26;42.02;94218.59;6231366;27;104348;-64
2022/11/22 13:29:54;;;;;;;3.80;3.40;;;;;;;22.28;42.31;94226.28;6218491;27;103734;-66
2022/11/22 13:32:59;;;;;;;4.30;4.00;;;;;;;22.32;42.48;94235.16;6229762;27;103771;-65
2022/11/22 13:36:33;;;;;;;3.70;3.40;;;;;;;22.28;42.27;94235.06;6230825;27;103703;-65
2022/11/22 13:39:43;;;;;;;4.23;3.93;;;;;;;22.29;42.62;94198.50;6220342;27;104576;-63
2022/11/22 13:42:46;;;;;;;4.00;3.70;;;;;;;22.30;42.08;94194.75;6230702;27;103803;-65
2022/11/22 13:45:50;;;;;;;4.10;3.70;;;;;;;22.29;42.70;94190.53;6231647;27;103905;-64
2022/11/22 13:49:14;;;;;;;4.23;3.80;;;;;;;22.30;42.24;94189.41;6231199;27;103716;-64
2022/11/22 13:52:51;;;;;;;4.40;4.10;;;;;;;22.30;42.31;94206.19;6220266;27;104831;-64
2022/11/22 13:55:56;;;;;;;4.10;3.80;;;;;;;22.30;42.57;94198.19;6221026;28;103896;-64
2022/11/22 13:59:05;;;;;;;3.80;3.60;;;;;;;22.28;42.89;94196.97;6206415;28;103873;-66
2022/11/22 14:02:22;;;;;;;4.70;3.83;;;;;;;22.33;42.99;94196.75;6215220;28;103975;-63
2022/11/22 14:05:34;;;;;;;4.03;3.67;;;;;;;22.27;43.21;94204.19;6234127;28;104241;-63
2022/11/22 14:08:43;;;;;;;4.50;4.10;;;;;;;22.23;42.91;94192.63;6235796;28;103521;-64
2022/11/22 14:12:04;;;;;;;4.50;4.10;;;;;;;22.29;42.73;94182.53;6232982;27;103728;-63
2022/11/22 14:15:22;;;;;;;4.30;3.93;;;;;;;22.27;43.43;94185.50;6223740;27;103905;-67
2022/11/22 14:18:45;;;;;;;5.50;5.00;;;;;;;22.30;43.40;94181.41;6230465;27;103698;-63
2022/11/22 14:22:00;;;;;;;4.40;4.00;;;;;;;22.35;43.40;94165.25;6229803;27;104047;-65
2022/11/22 14:25:18;;;;;;;4.83;4.20;;;;;;;22.28;43.24;94151.66;6206274;28;103880;-65
2022/11/22 14:28:48;;;;;;;4.80;4.40;;;;;;;22.34;43.34;94172.44;6222705;28;104858;-65
2022/11/22 14:31:55;;;;;;;5.10;4.70;;;;;;;22.35;43.09;94165.25;6228197;28;104271;-65
2022/11/22 14:35:18;;;;;;;5.07;4.67;;;;;;;22.35;43.12;94176.69;6228320;27;104167;-65
2022/11/22 14:38:32;;;;;;;5.23;4.73;;;;;;;22.35;43.23;94138.59;6221140;27;103696;-65
2022/11/22 14:41:43;;;;;;;4.97;4.60;;;;;;;22.35;43.67;94173.22;6232038;27;103705;-65
2022/11/22 14:44:51;;;;;;;5.30;4.83;;;;;;;22.37;43.29;94189.69;6233673;27;104485;-65
2022/11/22 14:48:01;;;;;;;4.77;4.30;;;;;;;22.38;43.64;94145.91;6226803;28;104635;-65
2022/11/22 14:51:14;;;;;;;4.80;4.40;;;;;;;22.37;43.79;94145.13;6228706;27;104954;-65
2022/11/22 14:54:22;;;;;;;5.07;4.67;;;;;;;22.38;43.31;94151.25;6231539;28;103768;-65
2022/11/22 14:57:27;;;;;;;5.77;5.03;;;;;;;22.39;43.52;94144.81;6232939;27;103681;-65